Latest Weather Observations for Ngayawili (Elcho Island)

IDD60801

Issued at 10:31 am CST Sunday 24 September 2017 (issued every 30 minutes, with the page automatically refreshed every 10 minutes)

About weather observations | Map of weather stations | Latest weather observations for NT | Other Formats
Station Details ID: 014517 Name: NGAYAWILI Lat: -12.00 Lon: 135.57 Height: 8.1 m
Data from the previous 72 hours. | See also: Recent months at Ngayawili (Elcho Island)
Date/Time
CST
Temp
°C
App
Temp
°C
Dew
Point
°C
Rel
Hum
%
Delta-T
°C
Wind Press
QNH
hPa
Press
MSL
hPa
Rain since
9am
mm
Dir  Spd
km/h
Gust
km/h
Spd
kts
Gust
kts
24/10:30am 29.7 33.2 22.9 67 4.6 N 9 32 5 17 1012.7 1012.6 -
24/10:00am 30.1 34.6 22.3 63 5.3 NNE 2 28 1 15 1013.0 1012.9 0.0
24/09:30am 29.6 33.6 22.1 64 5.1 NE 4 32 2 17 1013.0 1012.9 0.0
24/09:00am 28.9 33.8 22.4 68 4.4 CALM 0 4 0 2 1012.9 1012.8 0.0
24/08:30am 28.0 33.2 22.9 74 3.5 CALM 0 0 0 0 1012.8 1012.7 0.0
24/08:00am 26.3 31.9 23.6 85 1.8 CALM 0 0 0 0 1012.7 1012.6 0.0
24/07:30am 25.2 31.5 24.7 97 0.3 CALM 0 0 0 0 1012.4 1012.3 0.0
24/07:00am 23.3 28.7 23.3 100 0.0 CALM 0 0 0 0 1012.1 1012.0 0.0
24/06:30am 22.1 26.9 22.1 100 0.0 CALM 0 0 0 0 1012.0 1011.9 0.0
24/06:00am 23.0 28.3 23.0 100 0.0 CALM 0 0 0 0 1011.7 1011.6 0.0
24/05:30am 23.0 28.3 23.0 100 0.0 CALM 0 0 0 0 1011.6 1011.5 0.0
24/05:00am 21.9 26.6 21.9 100 0.0 CALM 0 0 0 0 1011.5 1011.4 0.0
24/04:30am 22.0 26.7 22.0 100 0.0 CALM 0 0 0 0 1011.2 1011.1 0.0
24/04:00am 21.7 26.3 21.7 100 0.0 CALM 0 0 0 0 1011.2 1011.1 0.0
24/03:30am 21.7 26.3 21.7 100 0.0 CALM 0 0 0 0 1011.1 1011.0 0.0
24/03:00am 21.7 26.2 21.5 99 0.1 CALM 0 0 0 0 1011.3 1011.2 0.0
24/02:30am 21.8 26.2 21.3 97 0.3 CALM 0 0 0 0 1011.5 1011.4 0.0
24/02:00am 23.3 28.5 22.8 97 0.3 CALM 0 0 0 0 1011.7 1011.6 0.0
24/01:30am 23.1 28.2 22.6 97 0.3 CALM 0 0 0 0 1012.0 1011.9 0.0
24/01:00am 23.0 27.7 22.0 94 0.7 CALM 0 0 0 0 1012.3 1012.2 0.0
24/12:30am 23.7 28.8 22.7 94 0.7 CALM 0 0 0 0 1012.4 1012.3 0.0
24/12:00am 23.7 28.6 22.3 92 0.9 CALM 0 0 0 0 1012.8 1012.7 0.0
 
Date/Time
CST
Temp
°C
App
Temp
°C
Dew
Point
°C
Rel
Hum
%
Delta-T
°C
Wind Press
QNH
hPa
Press
MSL
hPa
Rain since
9am
mm
Dir  Spd
km/h
Gust
km/h
Spd
kts
Gust
kts
23/11:30pm 24.0 28.9 22.3 90 1.1 CALM 0 0 0 0 1013.1 1013.0 0.0
23/11:00pm 24.3 29.0 22.0 87 1.5 CALM 0 0 0 0 1013.2 1013.1 0.0
23/10:30pm 24.6 29.2 21.7 84 1.9 CALM 0 0 0 0 1013.1 1013.0 0.0
23/10:00pm 25.1 29.8 22.0 83 2.1 CALM 0 0 0 0 1012.7 1012.6 0.0
23/09:30pm 25.3 30.0 22.0 82 2.2 CALM 0 0 0 0 1012.4 1012.3 0.0
23/09:00pm 25.4 30.2 22.1 82 2.2 CALM 0 0 0 0 1012.0 1011.9 0.0
23/08:30pm 25.7 30.5 22.2 81 2.3 CALM 0 0 0 0 1011.8 1011.7 0.0
23/08:00pm 26.1 31.0 22.4 80 2.5 CALM 0 0 0 0 1011.5 1011.4 0.0
23/07:30pm 26.4 31.1 22.0 77 2.9 CALM 0 0 0 0 1011.2 1011.1 0.0
23/07:00pm 26.7 31.2 21.5 73 3.5 CALM 0 0 0 0 1010.9 1010.8 0.0
23/06:30pm 27.1 31.7 21.8 73 3.5 CALM 0 0 0 0 1010.7 1010.6 0.0
23/06:00pm 27.6 32.0 21.4 69 4.1 CALM 0 0 0 0 1010.5 1010.4 0.0
23/05:30pm 28.3 32.6 21.1 65 4.8 CALM 0 28 0 15 1010.5 1010.4 0.0
23/05:00pm 29.0 31.9 21.0 62 5.3 NNE 7 35 4 19 1010.3 1010.2 0.0
23/04:30pm 29.8 32.3 21.7 61 5.5 NE 11 35 6 19 1010.1 1010.0 0.0
23/04:00pm 30.6 32.9 21.4 58 6.2 NNE 11 35 6 19 1010.1 1010.0 0.0
23/03:30pm 30.8 32.3 21.3 57 6.4 NNE 15 39 8 21 1010.3 1010.2 0.0
23/03:00pm 32.3 36.1 20.9 51 7.6 NNE 2 32 1 17 1010.4 1010.3 0.0
23/02:30pm 33.2 35.9 17.8 40 9.9 CALM 0 0 0 0 1010.7 1010.6 0.0
23/02:00pm 32.7 35.2 17.3 39 9.8 CALM 0 33 0 18 1010.9 1010.8 0.0
23/01:30pm 32.9 34.7 17.5 39 9.9 ENE 4 41 2 22 1011.2 1011.1 0.0
23/01:00pm 32.4 33.3 16.7 39 9.9 ENE 7 39 4 21 1011.8 1011.7 0.0
23/12:30pm 32.1 34.2 19.0 45 8.6 ENE 6 37 3 20 1012.2 1012.1 0.0
23/12:00pm 31.0 34.3 20.0 52 7.3 E 2 35 1 19 1012.6 1012.5 0.0
23/11:30am 31.2 34.8 20.5 53 7.1 E 2 39 1 21 1013.1 1013.0 0.0
23/11:00am 30.8 34.2 21.0 56 6.5 ENE 4 35 2 19 1013.5 1013.4 0.0
23/10:30am 31.0 34.9 21.2 56 6.6 E 2 32 1 17 1013.8 1013.7 0.0
23/10:00am 30.4 34.6 20.9 57 6.3 CALM 0 30 0 16 1014.0 1013.9 0.0
23/09:30am 29.6 34.0 21.3 61 5.6 CALM 0 0 0 0 1014.1 1014.0 0.0
23/09:00am 28.8 33.4 21.8 66 4.7 CALM 0 0 0 0 1013.9 1013.8 0.0
23/08:30am 27.9 32.7 22.2 71 3.8 CALM 0 0 0 0 1013.9 1013.8 0.0
23/08:00am 27.4 33.1 23.8 81 2.5 CALM 0 0 0 0 1013.7 1013.6 0.0
23/07:30am 25.2 31.2 24.3 95 0.6 CALM 0 0 0 0 1013.6 1013.5 0.0
23/07:00am 23.4 28.9 23.4 100 0.0 CALM 0 0 0 0 1013.3 1013.2 0.0
23/06:30am 22.7 27.8 22.7 100 0.0 CALM 0 0 0 0 1013.0 1012.9 0.0
23/06:00am 22.3 27.2 22.3 100 0.0 CALM 0 0 0 0 1012.6 1012.5 0.0
23/05:30am 22.1 26.9 22.1 100 0.0 CALM 0 0 0 0 1012.2 1012.1 0.0
23/05:00am 22.5 27.3 22.2 98 0.2 CALM 0 0 0 0 1012.1 1012.0 0.0
23/04:30am 22.7 27.5 22.2 97 0.3 CALM 0 0 0 0 1011.9 1011.8 0.0
23/04:00am 23.1 28.2 22.6 97 0.3 CALM 0 0 0 0 1011.8 1011.7 0.0
23/03:30am 22.8 27.9 22.6 99 0.1 CALM 0 0 0 0 1011.7 1011.6 0.0
23/03:00am 22.6 27.4 22.1 97 0.3 CALM 0 0 0 0 1011.8 1011.7 0.0
23/02:30am 23.0 27.6 21.8 93 0.8 CALM 0 0 0 0 1012.1 1012.0 0.0
23/02:00am 23.7 28.7 22.5 93 0.8 CALM 0 0 0 0 1012.3 1012.2 0.0
23/01:30am 23.9 28.9 22.5 92 0.9 CALM 0 0 0 0 1012.4 1012.3 0.0
23/01:00am 24.1 29.0 22.4 90 1.1 CALM 0 0 0 0 1012.6 1012.5 0.0
23/12:30am 24.5 29.4 22.4 88 1.4 CALM 0 0 0 0 1012.8 1012.7 0.0
23/12:00am 24.9 29.8 22.4 86 1.7 CALM 0 0 0 0 1013.0 1012.9 0.0
 
Date/Time
CST
Temp
°C
App
Temp
°C
Dew
Point
°C
Rel
Hum
%
Delta-T
°C
Wind Press
QNH
hPa
Press
MSL
hPa
Rain since
9am
mm
Dir  Spd
km/h
Gust
km/h
Spd
kts
Gust
kts
22/11:30pm 25.0 30.0 22.5 86 1.7 CALM 0 0 0 0 1013.1 1013.0 0.0
22/11:00pm 25.1 30.2 22.6 86 1.7 CALM 0 0 0 0 1013.3 1013.2 0.0
22/10:30pm 25.4 30.6 22.9 86 1.7 CALM 0 0 0 0 1013.2 1013.1 0.0
22/10:00pm 25.7 31.0 23.0 85 1.8 CALM 0 0 0 0 1013.1 1013.0 0.0
22/09:30pm 25.6 30.9 23.1 86 1.7 CALM 0 0 0 0 1013.1 1013.0 0.0
22/09:00pm 25.7 30.8 22.6 83 2.1 CALM 0 0 0 0 1012.7 1012.6 0.0
22/08:30pm 25.9 30.6 22.0 79 2.6 CALM 0 0 0 0 1012.4 1012.3 0.0
22/08:00pm 26.2 30.7 21.6 76 3.1 CALM 0 0 0 0 1012.2 1012.1 0.0
22/07:30pm 26.6 30.9 21.1 72 3.6 CALM 0 0 0 0 1012.1 1012.0 0.0
22/07:00pm 27.0 31.4 21.3 71 3.8 CALM 0 0 0 0 1011.7 1011.6 0.0
22/06:30pm 27.3 31.2 20.4 66 4.5 CALM 0 0 0 0 1011.4 1011.3 0.0
22/06:00pm 28.4 32.6 20.9 64 5.0 CALM 0 0 0 0 1011.0 1010.9 0.0
22/05:30pm 29.3 34.0 22.0 64 4.9 CALM 0 0 0 0 1010.8 1010.7 0.0
22/05:00pm 29.9 34.0 21.6 61 5.6 NE 2 33 1 18 1010.7 1010.6 0.0
22/04:30pm 30.3 34.4 22.2 62 5.5 NE 4 33 2 18 1010.5 1010.4 0.0
22/04:00pm 30.1 33.8 22.5 63 5.2 NNE 7 39 4 21 1010.6 1010.5 0.0
22/03:30pm 31.4 34.9 23.5 63 5.5 NNE 11 35 6 19 1010.6 1010.5 0.0
22/03:00pm 31.3 34.6 22.6 60 6.0 NNE 9 39 5 21 1010.7 1010.6 0.0
22/02:30pm 31.4 33.3 22.1 57 6.3 NNE 15 37 8 20 1011.0 1010.9 0.0
22/02:00pm 31.7 33.3 22.1 56 6.5 NNE 17 37 9 20 1011.3 1011.2 0.0
22/01:30pm 31.8 35.0 23.1 60 6.0 NNE 11 37 6 20 1011.6 1011.5 0.0
22/01:00pm 32.5 35.1 22.6 56 6.8 NNE 13 35 7 19 1011.9 1011.8 0.0
22/12:44pm 31.6 34.2 22.0 56 6.5 NNE 11 37 6 20 1012.1 1012.0 0.0
22/12:30pm 32.4 36.9 21.6 53 7.3 CALM 0 4 0 2 1012.2 1012.1 0.0
22/12:00pm 32.3 36.3 20.5 49 7.9 CALM 0 13 0 7 1012.6 1012.5 0.0
22/11:30am 31.8 35.9 20.7 51 7.4 CALM 0 6 0 3 1013.0 1012.9 0.0
22/11:00am 31.5 35.9 21.4 55 6.8 CALM 0 30 0 16 1013.3 1013.2 0.0
22/10:30am 31.0 35.6 21.8 58 6.2 CALM 0 28 0 15 1013.5 1013.4 0.0
22/10:00am 30.4 34.5 21.5 59 6.0 NE 2 32 1 17 1013.8 1013.7 0.0
22/09:30am 30.1 34.3 20.9 57 6.1 CALM 0 19 0 10 1013.9 1013.8 0.0
22/09:00am 29.1 33.5 21.3 62 5.2 CALM 0 0 0 0 1013.9 1013.8 0.0
22/08:30am 28.2 33.5 23.1 74 3.5 CALM 0 0 0 0 1013.8 1013.7 0.0
22/08:00am 26.9 32.6 23.8 83 2.1 CALM 0 0 0 0 1013.7 1013.6 0.0
22/07:30am 25.6 31.3 23.8 90 1.2 CALM 0 0 0 0 1013.5 1013.4 0.0
22/07:00am 24.2 29.9 23.7 97 0.3 CALM 0 0 0 0 1013.1 1013.0 0.0
22/06:30am 23.3 28.6 23.0 98 0.2 CALM 0 0 0 0 1012.7 1012.6 0.0
22/06:00am 23.0 28.1 22.7 98 0.2 CALM 0 0 0 0 1012.4 1012.3 0.0
22/05:30am 22.9 28.0 22.6 98 0.2 CALM 0 0 0 0 1012.2 1012.1 0.0
22/05:00am 23.0 28.0 22.5 97 0.3 CALM 0 0 0 0 1011.9 1011.8 0.0
22/04:30am 23.5 28.8 23.0 97 0.3 CALM 0 0 0 0 1011.5 1011.4 0.0
22/04:00am 23.3 28.5 22.8 97 0.3 CALM 0 0 0 0 1011.4 1011.3 0.0
22/03:30am 23.1 28.0 22.3 95 0.5 CALM 0 0 0 0 1011.3 1011.2 0.0
22/03:00am 23.4 28.2 22.2 93 0.8 CALM 0 0 0 0 1011.4 1011.3 0.0
22/02:30am 23.7 28.5 22.1 91 1.1 CALM 0 0 0 0 1011.4 1011.3 0.0
22/02:00am 24.0 28.9 22.3 90 1.1 CALM 0 0 0 0 1011.5 1011.4 0.0
22/01:30am 24.2 29.0 22.1 88 1.4 CALM 0 0 0 0 1011.8 1011.7 0.0
22/01:00am 24.4 29.3 22.3 88 1.4 CALM 0 0 0 0 1012.0 1011.9 0.0
22/12:30am 24.7 29.6 22.4 87 1.5 CALM 0 0 0 0 1012.2 1012.1 0.0
22/12:00am 24.9 29.6 22.0 84 1.9 CALM 0 0 0 0 1012.3 1012.2 0.0
 
Date/Time
CST
Temp
°C
App
Temp
°C
Dew
Point
°C
Rel
Hum
%
Delta-T
°C
Wind Press
QNH
hPa
Press
MSL
hPa
Rain since
9am
mm
Dir  Spd
km/h
Gust
km/h
Spd
kts
Gust
kts
21/11:30pm 25.0 29.7 21.9 83 2.1 CALM 0 0 0 0 1012.3 1012.2 0.0
21/11:00pm 25.2 30.0 22.1 83 2.1 CALM 0 0 0 0 1012.4 1012.3 0.0
21/10:30pm 25.3 30.0 22.0 82 2.2 CALM 0 0 0 0 1012.3 1012.2 0.0
21/10:00pm 25.6 30.4 22.1 81 2.3 CALM 0 0 0 0 1012.1 1012.0 0.0
21/09:30pm 25.7 30.4 22.0 80 2.5 CALM 0 0 0 0 1011.9 1011.8 0.0
21/09:00pm 25.9 30.6 22.0 79 2.6 CALM 0 0 0 0 1011.8 1011.7 0.0
21/08:30pm 26.0 30.7 21.9 78 2.7 CALM 0 0 0 0 1011.6 1011.5 0.0
21/08:00pm 26.4 31.0 21.8 76 3.1 CALM 0 0 0 0 1011.2 1011.1 0.0
21/07:30pm 26.7 31.3 21.7 74 3.3 CALM 0 0 0 0 1010.7 1010.6 0.0
21/07:00pm 27.3 31.8 21.6 71 3.8 CALM 0 0 0 0 1010.3 1010.2 0.0
21/06:30pm 27.6 31.9 21.2 68 4.3 CALM 0 0 0 0 1010.2 1010.1 0.0
21/06:00pm 28.6 32.9 21.1 64 5.0 CALM 0 30 0 16 1010.0 1009.9 0.0
21/05:30pm 29.8 34.0 20.9 59 5.9 CALM 0 0 0 0 1009.8 1009.7 0.0
21/05:00pm 30.5 34.3 21.0 57 6.3 ENE 2 32 1 17 1009.6 1009.5 0.0
21/04:30pm 31.0 34.6 20.6 54 6.9 ENE 2 30 1 16 1009.5 1009.4 0.0
21/04:00pm 30.8 34.1 21.9 59 6.0 NE 7 33 4 18 1009.6 1009.5 0.0
21/03:30pm 31.4 34.2 21.6 56 6.6 NE 9 41 5 22 1009.7 1009.6 0.0
21/03:00pm 31.9 35.2 21.4 53 7.1 NE 6 33 3 18 1009.8 1009.7 0.0
21/02:30pm 32.3 34.6 22.1 55 7.0 NNE 13 35 7 19 1010.0 1009.9 0.0
21/02:00pm 32.0 33.5 21.2 52 7.3 NNE 15 41 8 22 1010.2 1010.1 0.0
21/01:30pm 32.4 35.4 19.3 46 8.6 NE 2 35 1 19 1010.7 1010.6 0.0
21/01:00pm 32.5 35.2 18.7 44 9.0 ENE 2 32 1 17 1011.1 1011.0 0.0
21/12:30pm 32.4 35.8 19.3 46 8.6 CALM 0 32 0 17 1011.5 1011.4 0.0
21/12:00pm 32.6 36.4 20.2 48 8.2 CALM 0 0 0 0 1011.9 1011.8 0.0
21/11:30am 32.3 35.4 19.5 46 8.4 ENE 2 32 1 17 1012.1 1012.0 0.0
21/11:00am 32.6 36.2 19.8 46 8.5 CALM 0 0 0 0 1012.4 1012.3 0.0

Other Formats:

Comma delimited format used in spreadsheet applications
http://www.bom.gov.au/fwo/IDD60801/IDD60801.95146.axf

JavaScript Object Notation format (JSON) in row-major order
http://www.bom.gov.au/fwo/IDD60801/IDD60801.95146.json